VLG8QU LEBL-LECO
Flight info
| Callsign | VLG8QU |
|---|---|
| Flight time | 1h 25m |
| Altitude | 32000 |
| Route | LOBAR N725 LOMDA |
| Aircraft | A321/M-SDFGHILORVWXY/LB1 |
Departure
| Time | 2026-05-04 08:06 |
|---|---|
| Airport | Josep Tarradellas Barcelona-El Prat Airport (LEBL) |
Arrival
| Time | 2026-05-04 09:32 |
|---|---|
| Airport | A Coruña Airport (LECO) |
| Time | Latitude | Longitude | Altitude | Speed | Heading |
|---|---|---|---|---|---|
| 2026-05-04 07:22 | 41.29013 | 2.08001 | 19 ft | 0 kts | 335° |
| 2026-05-04 07:49 | 41.29009 | 2.08004 | 19 ft | 3 kts | 335° |
| 2026-05-04 07:50 | 41.28984 | 2.08019 | 21 ft | 4 kts | 335° |
| 2026-05-04 07:50 | 41.28961 | 2.08033 | 22 ft | 4 kts | 322° |
| 2026-05-04 07:50 | 41.28948 | 2.08058 | 22 ft | 4 kts | 262° |
| 2026-05-04 07:50 | 41.28954 | 2.08083 | 20 ft | 4 kts | 245° |
| 2026-05-04 07:51 | 41.28960 | 2.08099 | 21 ft | 0 kts | 245° |
| 2026-05-04 07:54 | 41.28958 | 2.08094 | 19 ft | 1 kts | 245° |
| 2026-05-04 07:55 | 41.28954 | 2.08081 | 19 ft | 2 kts | 246° |
| 2026-05-04 07:55 | 41.28947 | 2.08060 | 19 ft | 3 kts | 246° |
| 2026-05-04 07:55 | 41.28937 | 2.08031 | 19 ft | 4 kts | 246° |
| 2026-05-04 07:55 | 41.28925 | 2.07995 | 19 ft | 5 kts | 245° |
| 2026-05-04 07:56 | 41.28910 | 2.07951 | 21 ft | 6 kts | 245° |
| 2026-05-04 07:56 | 41.28895 | 2.07908 | 20 ft | 5 kts | 245° |
| 2026-05-04 07:56 | 41.28876 | 2.07871 | 20 ft | 5 kts | 224° |
| 2026-05-04 07:56 | 41.28844 | 2.07857 | 18 ft | 5 kts | 179° |
| 2026-05-04 07:57 | 41.28811 | 2.07869 | 18 ft | 5 kts | 159° |
| 2026-05-04 07:57 | 41.28774 | 2.07892 | 18 ft | 6 kts | 155° |
| 2026-05-04 07:57 | 41.28734 | 2.07917 | 17 ft | 7 kts | 155° |
| 2026-05-04 07:57 | 41.28686 | 2.07947 | 16 ft | 9 kts | 155° |
| 2026-05-04 07:58 | 41.28636 | 2.07979 | 17 ft | 6 kts | 145° |
| 2026-05-04 07:58 | 41.28626 | 2.08013 | 16 ft | 3 kts | 92° |
| 2026-05-04 07:58 | 41.28628 | 2.08035 | 16 ft | 3 kts | 78° |
| 2026-05-04 07:58 | 41.28636 | 2.08069 | 17 ft | 5 kts | 70° |
| 2026-05-04 07:59 | 41.28659 | 2.08134 | 17 ft | 10 kts | 65° |
| 2026-05-04 07:59 | 41.28691 | 2.08229 | 18 ft | 12 kts | 65° |
| 2026-05-04 07:59 | 41.28728 | 2.08337 | 16 ft | 14 kts | 65° |
| 2026-05-04 07:59 | 41.28770 | 2.08458 | 18 ft | 13 kts | 65° |
| 2026-05-04 08:00 | 41.28810 | 2.08576 | 17 ft | 15 kts | 65° |
| 2026-05-04 08:00 | 41.28850 | 2.08692 | 18 ft | 14 kts | 65° |
| 2026-05-04 08:00 | 41.28891 | 2.08814 | 16 ft | 15 kts | 65° |
| 2026-05-04 08:02 | 41.29096 | 2.09413 | 17 ft | 8 kts | 65° |
| 2026-05-04 08:02 | 41.29122 | 2.09489 | 18 ft | 10 kts | 65° |
| 2026-05-04 08:02 | 41.29154 | 2.09580 | 18 ft | 12 kts | 65° |
| 2026-05-04 08:03 | 41.29190 | 2.09683 | 17 ft | 13 kts | 65° |
| 2026-05-04 08:03 | 41.29230 | 2.09798 | 17 ft | 14 kts | 65° |
| 2026-05-04 08:03 | 41.29256 | 2.09876 | 17 ft | 7 kts | 65° |
| 2026-05-04 08:03 | 41.29285 | 2.09934 | 17 ft | 8 kts | 51° |
| 2026-05-04 08:04 | 41.29312 | 2.10006 | 18 ft | 10 kts | 66° |
| 2026-05-04 08:04 | 41.29323 | 2.10085 | 16 ft | 9 kts | 104° |
| 2026-05-04 08:04 | 41.29300 | 2.10170 | 14 ft | 11 kts | 110° |
| 2026-05-04 08:04 | 41.29269 | 2.10276 | 13 ft | 11 kts | 119° |
| 2026-05-04 08:05 | 41.29212 | 2.10286 | 15 ft | 8 kts | 213° |
| 2026-05-04 08:05 | 41.29204 | 2.10271 | 17 ft | 1 kts | 239° |
| 2026-05-04 08:05 | 41.29174 | 2.10190 | 16 ft | 36 kts | 245° |
| 2026-05-04 08:05 | 41.28962 | 2.09566 | 20 ft | 110 kts | 246° |
| 2026-05-04 08:06 | 41.28556 | 2.08393 | 32 ft | 165 kts | 245° |
| 2026-05-04 08:06 | 41.28068 | 2.06982 | 597 ft | 169 kts | 243° |
| 2026-05-04 08:06 | 41.27269 | 2.05855 | 1295 ft | 173 kts | 210° |
| 2026-05-04 08:06 | 41.26055 | 2.05465 | 1665 ft | 189 kts | 189° |
| 2026-05-04 08:08 | 41.16829 | 2.00491 | 5902 ft | 226 kts | 233° |
| 2026-05-04 08:08 | 41.15878 | 1.98820 | 6674 ft | 228 kts | 232° |
| 2026-05-04 08:10 | 41.12198 | 1.82160 | 11789 ft | 290 kts | 294° |
| 2026-05-04 08:11 | 41.13207 | 1.79720 | 11952 ft | 313 kts | 295° |
| 2026-05-04 08:11 | 41.15481 | 1.74431 | 12766 ft | 339 kts | 296° |
| 2026-05-04 08:11 | 41.16663 | 1.71713 | 13473 ft | 342 kts | 296° |
| 2026-05-04 08:12 | 41.17847 | 1.68967 | 14146 ft | 344 kts | 295° |
| 2026-05-04 08:12 | 41.19032 | 1.66194 | 14770 ft | 347 kts | 295° |
| 2026-05-04 08:12 | 41.20220 | 1.63399 | 15410 ft | 349 kts | 295° |
| 2026-05-04 08:12 | 41.21417 | 1.60574 | 16051 ft | 352 kts | 295° |
| 2026-05-04 08:13 | 41.22621 | 1.57727 | 16682 ft | 355 kts | 295° |
| 2026-05-04 08:13 | 41.23832 | 1.54852 | 17322 ft | 358 kts | 295° |
| 2026-05-04 08:13 | 41.25053 | 1.51955 | 17980 ft | 361 kts | 295° |
| 2026-05-04 08:13 | 41.26271 | 1.49069 | 18549 ft | 364 kts | 295° |
| 2026-05-04 08:14 | 41.27518 | 1.46121 | 19068 ft | 367 kts | 294° |
| 2026-05-04 08:14 | 41.28772 | 1.43154 | 19616 ft | 370 kts | 294° |
| 2026-05-04 08:14 | 41.30035 | 1.40161 | 20178 ft | 372 kts | 294° |
| 2026-05-04 08:16 | 41.39064 | 1.18625 | 23907 ft | 390 kts | 292° |
| 2026-05-04 08:16 | 41.40385 | 1.15463 | 24337 ft | 392 kts | 292° |
| 2026-05-04 08:16 | 41.41714 | 1.12281 | 24802 ft | 394 kts | 292° |
| 2026-05-04 08:17 | 41.43045 | 1.09086 | 25235 ft | 395 kts | 292° |
| 2026-05-04 08:17 | 41.44383 | 1.05877 | 25652 ft | 397 kts | 292° |
| 2026-05-04 08:17 | 41.45727 | 1.02657 | 26066 ft | 399 kts | 292° |
| 2026-05-04 08:17 | 41.47078 | 0.99416 | 26465 ft | 401 kts | 291° |
| 2026-05-04 08:19 | 41.56649 | 0.76233 | 29199 ft | 415 kts | 291° |
| 2026-05-04 08:19 | 41.58042 | 0.72846 | 29535 ft | 417 kts | 291° |
| 2026-05-04 08:20 | 41.59441 | 0.69442 | 29878 ft | 420 kts | 291° |
| 2026-05-04 08:20 | 41.60850 | 0.66013 | 30224 ft | 422 kts | 291° |
| 2026-05-04 08:20 | 41.62268 | 0.62568 | 30547 ft | 424 kts | 291° |
| 2026-05-04 08:20 | 41.63691 | 0.59110 | 30835 ft | 426 kts | 291° |
| 2026-05-04 08:21 | 41.65116 | 0.55634 | 31140 ft | 427 kts | 291° |
| 2026-05-04 08:21 | 41.66517 | 0.52201 | 31528 ft | 426 kts | 291° |
| 2026-05-04 08:21 | 41.67505 | 0.49781 | 31815 ft | 425 kts | 291° |
| 2026-05-04 08:21 | 41.68215 | 0.48040 | 31919 ft | 425 kts | 291° |
| 2026-05-04 08:22 | 41.71005 | 0.41223 | 32001 ft | 408 kts | 291° |
| 2026-05-04 08:24 | 41.78233 | 0.17277 | 32004 ft | 394 kts | 281° |
| 2026-05-04 08:24 | 41.79058 | 0.13774 | 32001 ft | 394 kts | 281° |
| 2026-05-04 08:24 | 41.80706 | 0.06757 | 32000 ft | 395 kts | 280° |
| 2026-05-04 08:25 | 41.82352 | -0.00266 | 32011 ft | 395 kts | 280° |
| 2026-05-04 08:25 | 41.83997 | -0.07299 | 32022 ft | 396 kts | 281° |
| 2026-05-04 08:27 | 41.90505 | -0.35482 | 32011 ft | 396 kts | 280° |
| 2026-05-04 08:28 | 41.92136 | -0.42547 | 32013 ft | 396 kts | 280° |
| 2026-05-04 08:28 | 41.93764 | -0.49615 | 32010 ft | 396 kts | 280° |
| 2026-05-04 08:29 | 41.95378 | -0.56687 | 32008 ft | 396 kts | 280° |
| 2026-05-04 08:31 | 42.01793 | -0.85034 | 32014 ft | 397 kts | 279° |
| 2026-05-04 08:33 | 42.08157 | -1.13575 | 32000 ft | 399 kts | 279° |
| 2026-05-04 08:35 | 42.14462 | -1.42158 | 31987 ft | 399 kts | 279° |
| 2026-05-04 08:35 | 42.16040 | -1.49372 | 31983 ft | 399 kts | 279° |
| 2026-05-04 08:37 | 42.21491 | -1.74493 | 31979 ft | 400 kts | 279° |
| 2026-05-04 08:38 | 42.23044 | -1.81705 | 31971 ft | 401 kts | 279° |
| 2026-05-04 08:38 | 42.24598 | -1.88929 | 31973 ft | 401 kts | 279° |
| 2026-05-04 08:40 | 42.30772 | -2.17972 | 31970 ft | 403 kts | 278° |
| 2026-05-04 08:41 | 42.32309 | -2.25262 | 31970 ft | 404 kts | 279° |
| 2026-05-04 08:41 | 42.33848 | -2.32562 | 31984 ft | 404 kts | 279° |
| 2026-05-04 08:42 | 42.35381 | -2.39884 | 31969 ft | 405 kts | 279° |
| 2026-05-04 08:42 | 42.36912 | -2.47230 | 31967 ft | 406 kts | 279° |
| 2026-05-04 08:43 | 42.38431 | -2.54541 | 31993 ft | 407 kts | 279° |
| 2026-05-04 08:43 | 42.39961 | -2.61919 | 31970 ft | 408 kts | 279° |
| 2026-05-04 08:44 | 42.41486 | -2.69330 | 32003 ft | 412 kts | 279° |
| 2026-05-04 08:44 | 42.42258 | -2.73088 | 32185 ft | 417 kts | 279° |
| 2026-05-04 08:46 | 42.46626 | -2.99737 | 32990 ft | 411 kts | 272° |
| 2026-05-04 08:46 | 42.47457 | -3.07401 | 33004 ft | 412 kts | 273° |
| 2026-05-04 08:47 | 42.48282 | -3.15091 | 32992 ft | 413 kts | 273° |
| 2026-05-04 08:47 | 42.49109 | -3.22791 | 33005 ft | 413 kts | 273° |
| 2026-05-04 08:48 | 42.49938 | -3.30490 | 33011 ft | 414 kts | 273° |
| 2026-05-04 08:48 | 42.50764 | -3.38211 | 33019 ft | 414 kts | 273° |
| 2026-05-04 08:49 | 42.51580 | -3.45930 | 33043 ft | 414 kts | 273° |
| 2026-05-04 08:50 | 42.54398 | -3.72980 | 33008 ft | 414 kts | 273° |
| 2026-05-04 08:51 | 42.55195 | -3.80727 | 33050 ft | 415 kts | 273° |
| 2026-05-04 08:51 | 42.55976 | -3.88440 | 33049 ft | 416 kts | 273° |
| 2026-05-04 08:52 | 42.56759 | -3.96230 | 33029 ft | 417 kts | 273° |
| 2026-05-04 08:52 | 42.57545 | -4.04041 | 33021 ft | 418 kts | 273° |
| 2026-05-04 08:54 | 42.60502 | -4.34037 | 33032 ft | 419 kts | 273° |
| 2026-05-04 08:55 | 42.61264 | -4.41883 | 33040 ft | 419 kts | 273° |
| 2026-05-04 08:55 | 42.62024 | -4.49723 | 33027 ft | 419 kts | 273° |
| 2026-05-04 09:01 | 42.69600 | -5.32341 | 33022 ft | 420 kts | 274° |
| 2026-05-04 09:01 | 42.70287 | -5.40229 | 33026 ft | 420 kts | 274° |
| 2026-05-04 09:02 | 42.70971 | -5.48111 | 33021 ft | 420 kts | 274° |
| 2026-05-04 09:02 | 42.71658 | -5.55996 | 33020 ft | 420 kts | 274° |
| 2026-05-04 09:03 | 42.72341 | -5.63883 | 33019 ft | 420 kts | 274° |
| 2026-05-04 09:03 | 42.73020 | -5.71767 | 33024 ft | 420 kts | 275° |
| 2026-05-04 09:04 | 42.73687 | -5.79649 | 33026 ft | 420 kts | 275° |
| 2026-05-04 09:04 | 42.74348 | -5.87531 | 33028 ft | 419 kts | 275° |
| 2026-05-04 09:05 | 42.75005 | -5.95353 | 33033 ft | 419 kts | 275° |
| 2026-05-04 09:05 | 42.75655 | -6.03228 | 33034 ft | 418 kts | 274° |
| 2026-05-04 09:06 | 42.76293 | -6.11100 | 33046 ft | 418 kts | 275° |
| 2026-05-04 09:08 | 42.78787 | -6.42495 | 32795 ft | 413 kts | 274° |
| 2026-05-04 09:08 | 42.79090 | -6.46369 | 32530 ft | 410 kts | 274° |
| 2026-05-04 09:08 | 42.79389 | -6.50213 | 32274 ft | 407 kts | 275° |
| 2026-05-04 09:08 | 42.79685 | -6.54030 | 32012 ft | 403 kts | 275° |
| 2026-05-04 09:09 | 42.79977 | -6.57806 | 31587 ft | 399 kts | 275° |
| 2026-05-04 09:09 | 42.80263 | -6.61546 | 31110 ft | 396 kts | 275° |
| 2026-05-04 09:09 | 42.80547 | -6.65260 | 30634 ft | 393 kts | 275° |
| 2026-05-04 09:09 | 42.80830 | -6.68945 | 30163 ft | 390 kts | 275° |
| 2026-05-04 09:10 | 42.81110 | -6.72605 | 29650 ft | 387 kts | 276° |
| 2026-05-04 09:10 | 42.81384 | -6.76224 | 29197 ft | 382 kts | 275° |
| 2026-05-04 09:10 | 42.81651 | -6.79796 | 28756 ft | 377 kts | 276° |
| 2026-05-04 09:10 | 42.81914 | -6.83329 | 28318 ft | 373 kts | 276° |
| 2026-05-04 09:11 | 42.82175 | -6.86829 | 27887 ft | 369 kts | 275° |
| 2026-05-04 09:11 | 42.82432 | -6.90290 | 27464 ft | 366 kts | 275° |
| 2026-05-04 09:11 | 42.82683 | -6.93680 | 27057 ft | 363 kts | 275° |
| 2026-05-04 09:11 | 42.82935 | -6.97087 | 26659 ft | 360 kts | 275° |
| 2026-05-04 09:12 | 42.83182 | -7.00467 | 26270 ft | 357 kts | 276° |
| 2026-05-04 09:12 | 42.83426 | -7.03822 | 25877 ft | 355 kts | 276° |
| 2026-05-04 09:14 | 42.85111 | -7.26567 | 23091 ft | 334 kts | 281° |
| 2026-05-04 09:14 | 42.85759 | -7.29586 | 22689 ft | 331 kts | 291° |
| 2026-05-04 09:14 | 42.86812 | -7.32353 | 22295 ft | 328 kts | 301° |
| 2026-05-04 09:14 | 42.88152 | -7.34856 | 21890 ft | 325 kts | 304° |
| 2026-05-04 09:15 | 42.89502 | -7.37314 | 21493 ft | 322 kts | 304° |
| 2026-05-04 09:15 | 42.90834 | -7.39754 | 21096 ft | 319 kts | 304° |
| 2026-05-04 09:15 | 42.92151 | -7.42174 | 20700 ft | 316 kts | 304° |
| 2026-05-04 09:15 | 42.93456 | -7.44578 | 20302 ft | 314 kts | 304° |
| 2026-05-04 09:17 | 43.03629 | -7.63335 | 17117 ft | 299 kts | 304° |
| 2026-05-04 09:18 | 43.04859 | -7.65610 | 16749 ft | 296 kts | 304° |
| 2026-05-04 09:18 | 43.06079 | -7.67870 | 16362 ft | 294 kts | 304° |
| 2026-05-04 09:18 | 43.07288 | -7.70109 | 15990 ft | 292 kts | 304° |
| 2026-05-04 09:18 | 43.08490 | -7.72336 | 15611 ft | 290 kts | 304° |
| 2026-05-04 09:19 | 43.09686 | -7.74550 | 15243 ft | 288 kts | 304° |
| 2026-05-04 09:19 | 43.10858 | -7.76726 | 14879 ft | 287 kts | 304° |
| 2026-05-04 09:19 | 43.12040 | -7.78926 | 14510 ft | 286 kts | 304° |
| 2026-05-04 09:19 | 43.13215 | -7.81118 | 14141 ft | 285 kts | 304° |
| 2026-05-04 09:20 | 43.14386 | -7.83306 | 13766 ft | 285 kts | 304° |
| 2026-05-04 09:20 | 43.15555 | -7.85486 | 13367 ft | 283 kts | 304° |
| 2026-05-04 09:20 | 43.16715 | -7.87646 | 13026 ft | 281 kts | 304° |
| 2026-05-04 09:20 | 43.17864 | -7.89792 | 12663 ft | 278 kts | 304° |
| 2026-05-04 09:21 | 43.19006 | -7.91924 | 12302 ft | 277 kts | 304° |
| 2026-05-04 09:21 | 43.20140 | -7.94040 | 11954 ft | 275 kts | 304° |
| 2026-05-04 09:21 | 43.21266 | -7.96148 | 11601 ft | 273 kts | 304° |
| 2026-05-04 09:21 | 43.22386 | -7.98245 | 11254 ft | 272 kts | 304° |
| 2026-05-04 09:22 | 43.23499 | -8.00331 | 10899 ft | 270 kts | 304° |
| 2026-05-04 09:22 | 43.24608 | -8.02406 | 10546 ft | 269 kts | 305° |
| 2026-05-04 09:22 | 43.25713 | -8.04476 | 10226 ft | 268 kts | 304° |
| 2026-05-04 09:22 | 43.26813 | -8.06541 | 10140 ft | 271 kts | 304° |
| 2026-05-04 09:23 | 43.27933 | -8.08643 | 10032 ft | 273 kts | 305° |
| 2026-05-04 09:23 | 43.29065 | -8.10772 | 9549 ft | 277 kts | 305° |
| 2026-05-04 09:23 | 43.30199 | -8.12891 | 9144 ft | 276 kts | 307° |
| 2026-05-04 09:23 | 43.31691 | -8.14509 | 8573 ft | 274 kts | 337° |
| 2026-05-04 09:25 | 43.44747 | -8.13781 | 5611 ft | 265 kts | 334° |
| 2026-05-04 09:25 | 43.46383 | -8.14900 | 4871 ft | 261 kts | 326° |
| 2026-05-04 09:26 | 43.47829 | -8.16271 | 4588 ft | 243 kts | 319° |
| 2026-05-04 09:26 | 43.49069 | -8.17783 | 4457 ft | 232 kts | 311° |
| 2026-05-04 09:26 | 43.49770 | -8.19643 | 4381 ft | 214 kts | 274° |
| 2026-05-04 09:26 | 43.49449 | -8.21525 | 4306 ft | 201 kts | 237° |
| 2026-05-04 09:27 | 43.48373 | -8.22738 | 4239 ft | 203 kts | 214° |
| 2026-05-04 09:27 | 43.47171 | -8.23744 | 4024 ft | 201 kts | 213° |
| 2026-05-04 09:27 | 43.45983 | -8.24728 | 3775 ft | 198 kts | 213° |
| 2026-05-04 09:27 | 43.44801 | -8.25704 | 3511 ft | 197 kts | 213° |
| 2026-05-04 09:28 | 43.43628 | -8.26673 | 3243 ft | 196 kts | 213° |
| 2026-05-04 09:28 | 43.42469 | -8.27629 | 2977 ft | 194 kts | 214° |
| 2026-05-04 09:28 | 43.41324 | -8.28574 | 2715 ft | 194 kts | 213° |
| 2026-05-04 09:28 | 43.40173 | -8.29523 | 2457 ft | 191 kts | 213° |
| 2026-05-04 09:29 | 43.39063 | -8.30437 | 2202 ft | 181 kts | 212° |
| 2026-05-04 09:29 | 43.38021 | -8.31295 | 1969 ft | 164 kts | 213° |
| 2026-05-04 09:29 | 43.37106 | -8.32047 | 1742 ft | 145 kts | 213° |
| 2026-05-04 09:29 | 43.36265 | -8.32740 | 1534 ft | 138 kts | 214° |
| 2026-05-04 09:30 | 43.35439 | -8.33421 | 1353 ft | 138 kts | 213° |
| 2026-05-04 09:30 | 43.34610 | -8.34104 | 1161 ft | 139 kts | 212° |
| 2026-05-04 09:30 | 43.33782 | -8.34785 | 988 ft | 137 kts | 214° |
| 2026-05-04 09:30 | 43.32978 | -8.35452 | 787 ft | 134 kts | 215° |
| 2026-05-04 09:31 | 43.32175 | -8.36109 | 592 ft | 135 kts | 214° |
| 2026-05-04 09:31 | 43.31366 | -8.36776 | 400 ft | 137 kts | 213° |
| 2026-05-04 09:31 | 43.30558 | -8.37444 | 282 ft | 128 kts | 215° |
| 2026-05-04 09:31 | 43.29922 | -8.37961 | 275 ft | 71 kts | 208° |
| 2026-05-04 09:32 | 43.29717 | -8.38118 | 272 ft | 17 kts | 213° |
| 2026-05-04 09:32 | 43.29610 | -8.38215 | 270 ft | 20 kts | 213° |
| 2026-05-04 09:34 | 43.29278 | -8.38491 | 271 ft | 8 kts | 30° |
| 2026-05-04 09:34 | 43.29334 | -8.38447 | 270 ft | 11 kts | 30° |
| 2026-05-04 09:34 | 43.29407 | -8.38389 | 269 ft | 13 kts | 30° |
| 2026-05-04 09:34 | 43.29491 | -8.38322 | 270 ft | 13 kts | 32° |
| 2026-05-04 09:35 | 43.29572 | -8.38250 | 270 ft | 15 kts | 33° |
| 2026-05-04 09:35 | 43.29652 | -8.38180 | 270 ft | 13 kts | 32° |
| 2026-05-04 09:35 | 43.29727 | -8.38115 | 272 ft | 13 kts | 32° |
| 2026-05-04 09:35 | 43.29792 | -8.38062 | 273 ft | 11 kts | 28° |
| 2026-05-04 09:37 | 43.30140 | -8.38060 | 274 ft | 3 kts | 336° |
| 2026-05-04 09:37 | 43.30155 | -8.38073 | 274 ft | 2 kts | 327° |
| 2026-05-04 09:38 | 43.30161 | -8.38078 | 274 ft | 0 kts | 326° |